Time;durP1;ratioP1;P1;durP2;ratioP2;P2;SDS_P1;SDS_P2;PMS_P1;PMS_P2;Temp;Humidity;BMP_temperature;BMP_pressure;BME280_temperature;BME280_humidity;BME280_pressure;Samples;Min_cycle;Max_cycle;Signal;HPM_P1;HPM_P2
2021/04/29 00:02:34;;;;;;;5.17;4.77;;;14.50;68.80;;;;;;5031107;28;20422;-73
2021/04/29 00:05:00;;;;;;;5.93;4.43;;;14.50;69.90;;;;;;5028443;28;20973;-73
2021/04/29 00:07:26;;;;;;;5.90;4.20;;;14.50;70.70;;;;;;5031413;28;20442;-73
2021/04/29 00:09:52;;;;;;;5.13;4.70;;;14.50;71.40;;;;;;5015114;28;20496;-73
2021/04/29 00:12:21;;;;;;;5.00;4.50;;;14.50;72.30;;;;;;4990933;28;21048;-73
2021/04/29 00:14:47;;;;;;;5.47;4.20;;;14.40;73.00;;;;;;5027330;28;20453;-73
2021/04/29 00:17:13;;;;;;;6.53;4.50;;;14.40;74.70;;;;;;5015017;28;20422;-73
2021/04/29 00:19:41;;;;;;;5.17;4.50;;;14.40;75.60;;;;;;5021132;28;20423;-73
2021/04/29 00:22:10;;;;;;;5.53;4.83;;;14.30;76.50;;;;;;5034958;28;20497;-73
2021/04/29 00:24:38;;;;;;;5.00;4.53;;;14.20;77.80;;;;;;5027694;28;20450;-73
2021/04/29 00:27:07;;;;;;;4.70;4.03;;;14.20;78.60;;;;;;5014781;28;20417;-73
2021/04/29 00:29:33;;;;;;;6.50;4.80;;;14.20;79.30;;;;;;5017202;28;20465;-73
2021/04/29 00:31:59;;;;;;;5.93;4.77;;;14.20;78.60;;;;;;5019078;28;20436;-74
2021/04/29 00:34:27;;;;;;;5.17;4.70;;;14.20;78.50;;;;;;5018820;28;20472;-74
2021/04/29 00:36:53;;;;;;;6.50;5.20;;;14.10;79.20;;;;;;5032162;28;20410;-74
2021/04/29 00:39:19;;;;;;;5.73;5.13;;;14.00;80.00;;;;;;5031080;28;20935;-74
2021/04/29 00:41:45;;;;;;;7.80;5.40;;;14.10;79.80;;;;;;5014617;28;20530;-74
2021/04/29 00:44:11;;;;;;;5.57;4.97;;;14.00;79.60;;;;;;5015530;28;20523;-74
2021/04/29 00:46:40;;;;;;;7.47;6.63;;;14.00;80.00;;;;;;5014390;28;20924;-74
2021/04/29 00:49:06;;;;;;;9.67;6.43;;;14.00;78.90;;;;;;5028944;28;20894;-74
2021/04/29 00:51:32;;;;;;;9.30;6.80;;;14.00;77.80;;;;;;5029899;28;20828;-74
2021/04/29 00:54:01;;;;;;;7.93;7.17;;;14.00;76.80;;;;;;5022567;28;20474;-74
2021/04/29 00:56:27;;;;;;;10.00;7.50;;;14.00;76.60;;;;;;5013965;28;20535;-74
2021/04/29 00:58:53;;;;;;;8.03;7.23;;;14.00;76.90;;;;;;5027293;28;20433;-74
2021/04/29 01:01:21;;;;;;;6.17;5.60;;;14.00;77.40;;;;;;5033983;28;20457;-74
2021/04/29 01:03:54;;;;;;;5.30;4.80;;;14.00;80.00;;;;;;5025445;28;20447;-73
2021/04/29 01:06:27;;;;;;;7.37;5.67;;;14.00;81.40;;;;;;5035315;28;20867;-74
2021/04/29 01:09:01;;;;;;;5.30;4.80;;;14.00;83.10;;;;;;5033520;28;20508;-74
2021/04/29 01:11:32;;;;;;;5.43;4.90;;;13.90;85.10;;;;;;5035107;28;20458;-73
2021/04/29 01:14:05;;;;;;;4.63;4.23;;;13.90;87.00;;;;;;5023688;28;20519;-74
2021/04/29 01:16:34;;;;;;;7.00;4.73;;;13.80;88.60;;;;;;5033365;28;20443;-74
2021/04/29 01:19:01;;;;;;;5.40;4.90;;;13.80;89.50;;;;;;5020374;28;20942;-74
2021/04/29 01:21:28;;;;;;;4.90;4.50;;;13.80;90.30;;;;;;5011185;28;20453;-74
2021/04/29 01:23:58;;;;;;;8.20;4.90;;;13.80;90.70;;;;;;5029616;28;20512;-74
2021/04/29 01:26:33;;;;;;;5.90;4.73;;;13.70;91.10;;;;;;5013151;28;20479;-74
2021/04/29 01:29:16;;;;;;;6.20;4.20;;;13.70;91.70;;;;;;5014684;28;20427;-74
2021/04/29 01:31:48;;;;;;;6.27;4.27;;;13.50;92.20;;;;;;5014727;28;20453;-74
2021/04/29 01:34:17;;;;;;;8.33;4.80;;;13.40;93.00;;;;;;5015260;28;20839;-74
2021/04/29 01:36:48;;;;;;;6.70;4.67;;;13.40;93.50;;;;;;4997377;28;20426;-74
2021/04/29 01:39:16;;;;;;;4.90;4.50;;;13.30;93.90;;;;;;4998536;28;20434;-74
2021/04/29 01:41:46;;;;;;;9.50;6.00;;;13.30;94.20;;;;;;5014047;28;20428;-74
2021/04/29 01:44:13;;;;;;;5.80;5.30;;;13.30;93.90;;;;;;5013443;28;20446;-74
2021/04/29 01:46:43;;;;;;;5.73;5.23;;;13.20;94.00;;;;;;5016040;28;20426;-74
2021/04/29 01:49:26;;;;;;;5.83;5.10;;;13.20;93.80;;;;;;5016419;28;21015;-74
2021/04/29 01:51:53;;;;;;;6.40;5.50;;;13.10;93.60;;;;;;5016557;28;20457;-74
2021/04/29 01:54:21;;;;;;;6.37;5.87;;;13.10;93.20;;;;;;5032772;28;20569;-74
2021/04/29 01:56:48;;;;;;;7.53;6.57;;;13.10;93.00;;;;;;5032496;28;21414;-74
2021/04/29 01:59:23;;;;;;;7.30;6.53;;;13.20;92.30;;;;;;5014491;28;20851;-74
2021/04/29 02:01:54;;;;;;;7.87;6.93;;;13.20;92.00;;;;;;5013880;28;20424;-74
2021/04/29 02:04:20;;;;;;;7.43;6.50;;;13.20;92.00;;;;;;5013224;28;20443;-74
2021/04/29 02:06:47;;;;;;;7.50;6.80;;;13.20;92.30;;;;;;5016073;28;20423;-74
2021/04/29 02:09:13;;;;;;;7.70;5.83;;;13.20;92.10;;;;;;5032519;28;20451;-75
2021/04/29 02:12:03;;;;;;;9.60;6.47;;;13.20;92.20;;;;;;5014863;28;20433;-74
2021/04/29 02:14:48;;;;;;;7.43;6.73;;;13.20;92.30;;;;;;5033660;28;20446;-74
2021/04/29 02:17:36;;;;;;;7.90;6.77;;;13.20;92.80;;;;;;5026656;28;20437;-74
2021/04/29 02:20:06;;;;;;;9.10;8.20;;;13.20;93.10;;;;;;5013944;28;20409;-73
2021/04/29 02:22:39;;;;;;;9.37;8.00;;;13.10;93.20;;;;;;5024403;28;20459;-74
2021/04/29 02:25:06;;;;;;;12.33;8.37;;;13.20;93.40;;;;;;4996245;28;20471;-74
2021/04/29 02:27:37;;;;;;;12.23;9.27;;;13.20;93.60;;;;;;5013982;28;20450;-74
2021/04/29 02:30:10;;;;;;;13.40;12.13;;;13.20;93.90;;;;;;4979842;28;20486;-74
2021/04/29 02:32:38;;;;;;;10.93;9.93;;;13.30;94.30;;;;;;5024407;28;20823;-74
2021/04/29 02:35:06;;;;;;;10.20;9.20;;;13.30;94.40;;;;;;5031853;28;20434;-74
2021/04/29 02:37:35;;;;;;;10.27;9.10;;;13.20;94.80;;;;;;5021270;28;21000;-74
2021/04/29 02:40:02;;;;;;;18.90;9.33;;;13.20;94.60;;;;;;5012313;28;20462;-74
2021/04/29 02:42:29;;;;;;;11.00;9.73;;;13.20;95.00;;;;;;5025032;28;20489;-74
2021/04/29 02:44:55;;;;;;;10.50;9.50;;;13.20;95.20;;;;;;5015482;28;20488;-73
2021/04/29 02:47:22;;;;;;;11.40;9.13;;;13.10;95.60;;;;;;5010349;28;20517;-74
2021/04/29 02:49:48;;;;;;;9.43;8.43;;;13.10;95.90;;;;;;5015414;28;21179;-74
2021/04/29 02:52:16;;;;;;;12.47;8.63;;;13.10;96.20;;;;;;5015875;28;20475;-74
2021/04/29 02:54:43;;;;;;;12.30;9.20;;;13.10;96.50;;;;;;4995807;28;21036;-73
2021/04/29 02:57:09;;;;;;;10.27;9.27;;;13.10;96.80;;;;;;5028591;28;20488;-73
2021/04/29 02:59:40;;;;;;;10.63;9.33;;;13.00;97.10;;;;;;5032897;28;20506;-74
2021/04/29 03:02:09;;;;;;;12.57;10.53;;;13.10;97.40;;;;;;5024370;28;20963;-74
2021/04/29 03:04:37;;;;;;;12.47;10.50;;;13.00;97.50;;;;;;5023069;28;20453;-74
2021/04/29 03:07:03;;;;;;;17.13;11.00;;;13.00;97.70;;;;;;5013363;28;20954;-74
2021/04/29 03:09:30;;;;;;;13.30;10.13;;;13.10;97.60;;;;;;5013237;28;20530;-73
2021/04/29 03:11:59;;;;;;;13.67;11.13;;;13.10;97.60;;;;;;4996207;28;20801;-74
2021/04/29 03:14:26;;;;;;;13.70;10.50;;;13.10;98.00;;;;;;4995321;28;20475;-73
2021/04/29 03:16:52;;;;;;;13.07;10.67;;;13.10;98.10;;;;;;5012836;28;20431;-73
2021/04/29 03:19:21;;;;;;;17.33;10.37;;;13.00;98.10;;;;;;5016361;28;20439;-74
2021/04/29 03:21:47;;;;;;;11.90;9.90;;;13.00;98.50;;;;;;5027835;28;20429;-74
2021/04/29 03:24:13;;;;;;;12.63;10.43;;;13.00;98.60;;;;;;5031181;28;20454;-73
2021/04/29 03:26:39;;;;;;;14.60;11.10;;;12.90;99.00;;;;;;5027810;28;20446;-74
2021/04/29 03:29:05;;;;;;;14.07;11.00;;;12.80;99.00;;;;;;4995115;28;20428;-74
2021/04/29 03:31:32;;;;;;;13.13;11.40;;;12.90;98.80;;;;;;5013133;28;20433;-74
2021/04/29 03:33:58;;;;;;;13.60;11.13;;;12.80;99.30;;;;;;5011425;28;20475;-73
2021/04/29 03:36:24;;;;;;;13.23;11.60;;;12.90;99.30;;;;;;5023800;28;20547;-74
2021/04/29 03:38:53;;;;;;;17.20;12.30;;;12.80;99.50;;;;;;5027780;28;20426;-74
2021/04/29 03:41:19;;;;;;;18.47;13.17;;;12.80;99.70;;;;;;5011033;28;20433;-74
2021/04/29 03:43:46;;;;;;;16.90;12.33;;;12.80;99.90;;;;;;5011518;28;20880;-74
2021/04/29 03:46:12;;;;;;;16.90;13.23;;;12.90;99.60;;;;;;4994920;28;20435;-73
2021/04/29 03:48:38;;;;;;;15.97;13.40;;;12.80;99.60;;;;;;5018026;28;21040;-74
2021/04/29 03:51:04;;;;;;;17.30;12.57;;;12.70;99.90;;;;;;5028950;28;20475;-74
2021/04/29 03:53:30;;;;;;;15.27;13.07;;;12.70;99.90;;;;;;5011156;28;21155;-74
2021/04/29 03:55:57;;;;;;;15.80;12.23;;;12.70;99.90;;;;;;5020824;28;20446;-74
2021/04/29 03:58:26;;;;;;;17.73;14.00;;;12.80;99.90;;;;;;5011420;28;20805;-74
2021/04/29 04:00:54;;;;;;;17.40;14.23;;;12.70;99.90;;;;;;5020440;28;20494;-73
2021/04/29 04:03:22;;;;;;;18.30;14.27;;;12.60;99.70;;;;;;5010354;28;20515;-73
2021/04/29 04:05:49;;;;;;;19.77;15.60;;;12.60;99.60;;;;;;5012361;28;20987;-73
2021/04/29 04:08:15;;;;;;;20.47;16.93;;;12.50;99.90;;;;;;5018414;28;20459;-74
2021/04/29 04:10:57;;;;;;;26.73;16.20;;;12.50;99.90;;;;;;5003389;28;20440;-73
2021/04/29 04:13:26;;;;;;;21.90;17.07;;;12.40;99.90;;;;;;5031959;28;20432;-75
2021/04/29 04:15:52;;;;;;;18.33;16.03;;;12.40;99.90;;;;;;5017279;28;20442;-73
2021/04/29 04:18:20;;;;;;;20.00;17.03;;;12.40;99.90;;;;;;5011139;28;20467;-74
2021/04/29 04:20:46;;;;;;;26.23;18.63;;;12.40;99.90;;;;;;4994825;28;20502;-73
2021/04/29 04:23:12;;;;;;;19.63;17.50;;;12.30;99.90;;;;;;5025832;28;20498;-73
2021/04/29 04:25:39;;;;;;;28.00;18.53;;;12.30;99.90;;;;;;5011904;28;20816;-74
2021/04/29 04:28:07;;;;;;;23.63;17.83;;;12.20;99.90;;;;;;5014358;28;20423;-74
2021/04/29 04:30:34;;;;;;;23.07;18.37;;;12.20;99.90;;;;;;5030791;28;20439;-74
2021/04/29 04:32:59;;;;;;;23.57;18.73;;;12.10;99.90;;;;;;5028475;28;20554;-73
2021/04/29 04:35:26;;;;;;;20.50;17.90;;;12.10;99.90;;;;;;5011343;28;20873;-72
2021/04/29 04:37:52;;;;;;;31.40;18.83;;;12.10;99.90;;;;;;4999414;28;20566;-73
2021/04/29 04:40:18;;;;;;;21.53;17.47;;;12.10;99.90;;;;;;5028275;28;20587;-73
2021/04/29 04:42:44;;;;;;;25.03;19.53;;;12.00;99.90;;;;;;5027105;28;20463;-73
2021/04/29 04:45:14;;;;;;;22.20;18.30;;;12.00;99.90;;;;;;5027132;28;20446;-74
2021/04/29 04:47:40;;;;;;;21.83;18.60;;;11.90;99.90;;;;;;5027061;28;20459;-74
2021/04/29 04:50:10;;;;;;;20.70;17.53;;;11.90;99.90;;;;;;5025938;28;20458;-74
2021/04/29 04:52:36;;;;;;;22.50;17.97;;;11.90;99.90;;;;;;5029191;28;20478;-74
2021/04/29 04:55:06;;;;;;;21.10;18.70;;;11.90;99.90;;;;;;5018543;28;20817;-74
2021/04/29 04:57:32;;;;;;;20.30;18.07;;;11.80;99.90;;;;;;5031241;28;20443;-74
2021/04/29 04:59:58;;;;;;;23.53;17.37;;;11.80;99.90;;;;;;5030248;28;20444;-74
2021/04/29 05:02:25;;;;;;;26.33;17.57;;;11.80;99.90;;;;;;5012303;28;20790;-73
2021/04/29 05:04:53;;;;;;;26.30;17.77;;;11.80;99.90;;;;;;5008774;28;20532;-73
2021/04/29 05:07:19;;;;;;;21.03;17.37;;;11.90;99.90;;;;;;5028111;28;20460;-74
2021/04/29 05:09:45;;;;;;;22.00;17.77;;;11.90;99.90;;;;;;5020938;28;20434;-73
2021/04/29 05:12:11;;;;;;;22.27;17.80;;;11.90;99.90;;;;;;5012091;28;20432;-73
2021/04/29 05:14:39;;;;;;;20.20;15.67;;;11.90;99.90;;;;;;5018847;28;20505;-74
2021/04/29 05:17:06;;;;;;;20.83;17.87;;;11.80;99.90;;;;;;5031667;28;20423;-74
2021/04/29 05:19:37;;;;;;;19.60;17.00;;;11.80;99.90;;;;;;5013703;28;20465;-73
2021/04/29 05:22:03;;;;;;;20.37;17.43;;;11.90;99.90;;;;;;5028212;28;20967;-74
2021/04/29 05:24:29;;;;;;;21.47;17.87;;;11.90;99.90;;;;;;5013618;28;21142;-73
2021/04/29 05:26:55;;;;;;;22.90;17.63;;;12.00;99.90;;;;;;5022214;28;20445;-73
2021/04/29 05:29:25;;;;;;;22.63;17.73;;;12.00;99.90;;;;;;5011988;28;20503;-74
2021/04/29 05:31:51;;;;;;;22.03;18.13;;;12.00;99.90;;;;;;5010742;28;21110;-74
2021/04/29 05:34:20;;;;;;;22.60;17.27;;;12.00;99.90;;;;;;5028199;28;20574;-74
2021/04/29 05:36:46;;;;;;;24.03;19.13;;;12.00;99.90;;;;;;5029371;28;20481;-74
2021/04/29 05:39:14;;;;;;;23.93;18.30;;;12.10;99.90;;;;;;5013697;28;20964;-73
2021/04/29 05:41:45;;;;;;;24.53;16.83;;;12.00;99.90;;;;;;5010622;28;20429;-73
2021/04/29 05:44:15;;;;;;;27.33;21.07;;;12.10;99.90;;;;;;4994704;28;20481;-73
2021/04/29 05:46:43;;;;;;;21.33;19.07;;;12.10;99.90;;;;;;5009778;28;20434;-73
2021/04/29 05:49:09;;;;;;;24.73;18.93;;;12.10;99.90;;;;;;5027105;28;20446;-73
2021/04/29 05:51:39;;;;;;;23.93;19.17;;;12.10;99.90;;;;;;5009694;28;20475;-73
2021/04/29 05:54:05;;;;;;;24.03;19.77;;;12.10;99.90;;;;;;5012567;28;20982;-74
2021/04/29 05:56:33;;;;;;;29.10;18.80;;;12.10;99.90;;;;;;5029988;28;20440;-74
2021/04/29 05:58:59;;;;;;;27.93;21.47;;;12.20;99.90;;;;;;5029077;28;20520;-73
2021/04/29 06:01:26;;;;;;;33.03;20.20;;;12.20;99.90;;;;;;5030510;28;20551;-73
2021/04/29 06:03:54;;;;;;;22.13;19.73;;;12.10;99.90;;;;;;5015545;28;20461;-73
2021/04/29 06:06:21;;;;;;;26.97;20.53;;;12.00;99.30;;;;;;5008275;28;20962;-74
2021/04/29 06:08:47;;;;;;;27.90;19.20;;;11.90;99.70;;;;;;5028919;28;20437;-73
2021/04/29 06:11:14;;;;;;;23.20;19.37;;;11.90;99.80;;;;;;5029294;28;20477;-76
2021/04/29 06:13:44;;;;;;;24.83;18.93;;;11.90;99.90;;;;;;5017337;28;20511;-73
2021/04/29 06:16:11;;;;;;;21.53;18.03;;;11.90;99.50;;;;;;5010705;28;20439;-74
2021/04/29 06:18:41;;;;;;;24.00;18.97;;;11.90;99.50;;;;;;5012888;28;21341;-74
2021/04/29 06:21:07;;;;;;;25.80;18.40;;;11.90;99.90;;;;;;4996609;28;20437;-73
2021/04/29 06:23:33;;;;;;;23.43;18.03;;;11.90;98.80;;;;;;5027864;28;20481;-74
2021/04/29 06:26:02;;;;;;;26.23;18.90;;;12.00;99.40;;;;;;5029617;28;20459;-73
2021/04/29 06:28:29;;;;;;;19.83;16.40;;;12.10;98.40;;;;;;5021473;28;20444;-73
2021/04/29 06:30:58;;;;;;;23.17;18.43;;;12.10;95.60;;;;;;5013274;28;20441;-73
2021/04/29 06:33:25;;;;;;;22.70;17.40;;;12.10;95.80;;;;;;5005250;28;20442;-73
2021/04/29 06:35:57;;;;;;;19.20;16.37;;;12.10;95.10;;;;;;5021897;28;20473;-74
2021/04/29 06:38:26;;;;;;;28.17;19.20;;;12.10;95.50;;;;;;5018536;28;20819;-74
2021/04/29 06:40:52;;;;;;;21.30;17.60;;;12.10;95.80;;;;;;5023180;28;20445;-74
2021/04/29 06:43:21;;;;;;;22.70;17.70;;;12.20;95.60;;;;;;5008949;28;20474;-74
2021/04/29 06:45:47;;;;;;;22.23;18.27;;;12.20;95.50;;;;;;5013058;28;20434;-74
2021/04/29 06:48:18;;;;;;;20.43;18.10;;;12.10;94.50;;;;;;5001168;28;20448;-74
2021/04/29 06:50:44;;;;;;;29.20;20.13;;;12.10;94.60;;;;;;5010448;28;20429;-73
2021/04/29 06:53:10;;;;;;;20.60;17.60;;;12.10;94.40;;;;;;5009337;28;20920;-73
2021/04/29 06:55:36;;;;;;;16.77;14.97;;;12.10;94.70;;;;;;5003911;28;20499;-72
2021/04/29 06:58:03;;;;;;;22.13;17.40;;;12.10;94.00;;;;;;5015420;28;20444;-73
2021/04/29 07:00:30;;;;;;;20.30;17.43;;;12.10;94.20;;;;;;5029554;28;20477;-73
2021/04/29 07:02:59;;;;;;;23.73;19.10;;;12.00;94.40;;;;;;5024584;28;20559;-73
2021/04/29 07:05:27;;;;;;;22.97;18.30;;;12.00;94.10;;;;;;5005816;28;20462;-73
2021/04/29 07:07:54;;;;;;;22.73;18.00;;;11.90;94.70;;;;;;5023416;28;20450;-73
2021/04/29 07:10:21;;;;;;;22.63;18.40;;;12.00;94.70;;;;;;5010104;28;20425;-73
2021/04/29 07:12:48;;;;;;;19.93;17.83;;;12.10;94.60;;;;;;5028720;28;20518;-73
2021/04/29 07:15:16;;;;;;;26.23;18.80;;;12.30;94.80;;;;;;5031357;28;21000;-73
2021/04/29 07:17:47;;;;;;;27.43;18.93;;;12.30;94.10;;;;;;5013104;28;21037;-74
2021/04/29 07:20:14;;;;;;;19.83;17.77;;;12.40;94.80;;;;;;5031298;28;20434;-73
2021/04/29 07:22:40;;;;;;;23.20;20.30;;;12.40;94.70;;;;;;5015094;28;20530;-73
2021/04/29 07:25:07;;;;;;;25.23;19.50;;;12.40;94.80;;;;;;5021369;28;20443;-74
2021/04/29 07:27:35;;;;;;;29.07;19.20;;;12.50;95.50;;;;;;5023025;28;20424;-73
2021/04/29 07:30:04;;;;;;;24.57;19.60;;;12.60;95.10;;;;;;5032411;28;20422;-73
2021/04/29 07:32:30;;;;;;;24.93;20.80;;;12.70;95.80;;;;;;5029828;28;20522;-72
2021/04/29 07:34:57;;;;;;;28.87;22.23;;;12.70;95.60;;;;;;5031102;28;20939;-73
2021/04/29 07:37:24;;;;;;;24.67;21.73;;;12.70;96.50;;;;;;5014438;28;20525;-72
2021/04/29 07:39:50;;;;;;;31.57;25.60;;;12.70;96.10;;;;;;5030608;28;20856;-73
2021/04/29 07:42:16;;;;;;;31.30;25.80;;;12.70;98.10;;;;;;5017343;28;20796;-72
2021/04/29 07:44:42;;;;;;;43.83;31.10;;;12.70;99.30;;;;;;5017746;28;20650;-72
2021/04/29 07:47:08;;;;;;;46.23;35.23;;;12.90;99.90;;;;;;5024969;28;20440;-71
2021/04/29 07:49:34;;;;;;;53.30;36.03;;;12.90;99.90;;;;;;5032137;28;20426;-72
2021/04/29 07:52:03;;;;;;;51.27;38.47;;;12.90;99.90;;;;;;5030700;28;20542;-71
2021/04/29 07:54:32;;;;;;;51.27;39.60;;;12.70;99.90;;;;;;5031190;28;20468;-71
2021/04/29 07:56:58;;;;;;;58.17;40.43;;;12.70;99.90;;;;;;5032342;28;20904;-72
2021/04/29 07:59:29;;;;;;;51.53;39.77;;;12.80;99.90;;;;;;5030985;28;20473;-72
2021/04/29 08:01:57;;;;;;;52.90;39.23;;;12.80;99.90;;;;;;5031845;28;20440;-72
2021/04/29 08:04:23;;;;;;;50.67;36.70;;;12.80;99.90;;;;;;5031880;28;20474;-72
2021/04/29 08:06:50;;;;;;;55.73;40.07;;;12.90;99.90;;;;;;5032369;28;20423;-72
2021/04/29 08:09:16;;;;;;;57.20;38.10;;;12.90;99.90;;;;;;5031111;28;20758;-71
2021/04/29 08:11:44;;;;;;;57.57;39.80;;;12.90;99.90;;;;;;5030862;28;20931;-72
2021/04/29 08:14:10;;;;;;;47.70;36.03;;;12.90;99.90;;;;;;5030972;28;20457;-72
2021/04/29 08:16:36;;;;;;;49.37;37.00;;;12.90;99.90;;;;;;5031253;28;20429;-72
2021/04/29 08:19:03;;;;;;;61.40;41.90;;;12.80;99.90;;;;;;5013424;28;20460;-72
2021/04/29 08:21:29;;;;;;;52.33;37.67;;;12.70;99.90;;;;;;5031512;28;20435;-73
2021/04/29 08:23:57;;;;;;;50.37;38.13;;;12.80;99.90;;;;;;5016445;28;20508;-72
2021/04/29 08:26:29;;;;;;;50.70;37.87;;;12.80;99.90;;;;;;4999751;28;20465;-72
2021/04/29 08:28:55;;;;;;;53.77;38.47;;;12.90;99.90;;;;;;5015974;28;20448;-72
2021/04/29 08:31:21;;;;;;;59.57;40.97;;;12.90;99.90;;;;;;5036721;22;20564;-95
2021/04/29 08:33:50;;;;;;;49.67;39.23;;;13.00;99.90;;;;;;5000134;28;20439;-95
2021/04/29 08:36:16;;;;;;;50.43;37.93;;;12.90;99.90;;;;;;4999202;28;20766;-92
2021/04/29 08:38:44;;;;;;;49.30;37.20;;;12.90;99.90;;;;;;4998912;28;21039;-96
2021/04/29 08:41:13;;;;;;;47.30;36.20;;;13.00;99.90;;;;;;4983053;28;20423;-95
2021/04/29 08:43:41;;;;;;;49.83;35.40;;;13.20;99.90;;;;;;4982470;28;20566;-94
2021/04/29 08:46:07;;;;;;;44.57;34.93;;;13.10;99.90;;;;;;4982156;28;20420;-94
2021/04/29 08:48:34;;;;;;;46.07;34.10;;;13.20;99.60;;;;;;4999264;28;20907;-89
2021/04/29 08:51:03;;;;;;;43.63;34.07;;;13.30;98.80;;;;;;4999897;28;20428;-95
2021/04/29 08:53:31;;;;;;;40.90;32.07;;;13.40;98.70;;;;;;4998968;28;20468;-94
2021/04/29 08:55:57;;;;;;;45.63;32.40;;;13.50;96.80;;;;;;5024534;28;20440;-85
2021/04/29 08:58:23;;;;;;;43.80;32.00;;;13.50;96.70;;;;;;5018125;28;20426;-94
2021/04/29 09:00:59;;;;;;;42.60;31.27;;;13.50;96.80;;;;;;5017973;28;20432;-93
2021/04/29 09:03:33;;;;;;;40.30;30.70;;;13.80;96.30;;;;;;5017918;28;20469;-87
2021/04/29 09:06:06;;;;;;;38.80;30.53;;;13.60;95.10;;;;;;5032436;28;20492;-96
2021/04/29 09:08:34;;;;;;;43.60;31.07;;;13.40;94.80;;;;;;5036291;28;20518;-89
2021/04/29 09:11:18;;;;;;;38.70;30.00;;;13.30;95.70;;;;;;5038001;28;20980;-89
2021/04/29 09:14:05;;;;;;;39.13;29.47;;;13.30;95.40;;;;;;5028902;28;20434;-89
2021/04/29 09:16:46;;;;;;;39.70;28.27;;;13.30;95.30;;;;;;5037547;28;20434;-91
2021/04/29 09:19:24;;;;;;;34.57;26.70;;;13.40;95.40;;;;;;5036872;28;20910;-88
2021/04/29 09:21:54;;;;;;;30.33;25.80;;;13.50;95.10;;;;;;5026314;28;20858;-89
2021/04/29 09:24:40;;;;;;;37.93;26.37;;;13.70;94.60;;;;;;5031570;28;20473;-93
2021/04/29 09:27:24;;;;;;;31.90;25.20;;;13.80;92.50;;;;;;4997556;28;20415;-93
2021/04/29 09:30:00;;;;;;;30.57;25.30;;;13.90;92.80;;;;;;5000041;28;20901;-93
2021/04/29 09:32:34;;;;;;;31.60;25.30;;;13.90;92.10;;;;;;5017594;28;20430;-95
2021/04/29 09:35:17;;;;;;;31.50;24.10;;;13.80;92.40;;;;;;5018085;28;20431;-93
2021/04/29 09:37:48;;;;;;;36.23;25.87;;;13.90;92.30;;;;;;5018209;28;20407;-93
2021/04/29 09:40:30;;;;;;;31.77;26.70;;;13.90;92.10;;;;;;5015991;28;20450;-89
2021/04/29 09:43:01;;;;;;;32.63;26.00;;;13.90;92.10;;;;;;5029431;28;20860;-94
2021/04/29 09:45:31;;;;;;;30.17;24.90;;;14.00;93.50;;;;;;5032920;28;20435;-91
2021/04/29 09:48:37;;;;;;;31.10;25.50;;;14.20;92.40;;;;;;5021808;28;20419;-93
2021/04/29 09:51:10;;;;;;;32.77;25.50;;;14.40;91.80;;;;;;5018009;28;20426;-95
2021/04/29 09:53:49;;;;;;;28.60;23.50;;;14.50;91.80;;;;;;5018992;28;20466;-89
2021/04/29 09:56:18;;;;;;;26.50;23.10;;;14.60;90.80;;;;;;5019546;28;20433;-92
2021/04/29 09:58:57;;;;;;;29.90;24.50;;;14.50;90.10;;;;;;5029582;28;20856;-93
2021/04/29 10:01:27;;;;;;;28.20;24.13;;;14.70;90.20;;;;;;5026318;28;20776;-95
2021/04/29 10:03:58;;;;;;;28.73;24.10;;;15.20;90.70;;;;;;5020972;28;20987;-93
2021/04/29 10:06:25;;;;;;;26.43;23.33;;;15.50;87.50;;;;;;5037391;28;20469;-93
2021/04/29 10:08:51;;;;;;;28.57;25.53;;;15.70;87.80;;;;;;5037259;28;20953;-88
2021/04/29 10:11:26;;;;;;;31.47;24.80;;;16.00;86.30;;;;;;5019900;28;20416;-95
2021/04/29 10:13:58;;;;;;;27.07;22.93;;;16.20;85.50;;;;;;5020249;28;20419;-89
2021/04/29 10:16:27;;;;;;;32.43;25.47;;;16.50;85.00;;;;;;5027108;28;20436;-91
2021/04/29 10:18:57;;;;;;;29.13;22.53;;;16.60;83.70;;;;;;5016418;28;20420;-93
2021/04/29 10:21:24;;;;;;;27.40;23.73;;;16.70;80.70;;;;;;5017129;28;20416;-95
2021/04/29 10:23:50;;;;;;;28.90;22.33;;;16.40;80.60;;;;;;5032258;28;20479;-94
2021/04/29 10:26:29;;;;;;;28.27;24.00;;;16.10;80.70;;;;;;5016847;28;20925;-94
2021/04/29 10:29:06;;;;;;;24.23;21.73;;;15.90;80.90;;;;;;5017634;28;20415;-96
2021/04/29 10:31:36;;;;;;;24.57;21.90;;;15.50;82.50;;;;;;5033749;28;20474;-91
2021/04/29 10:34:18;;;;;;;26.73;21.10;;;15.40;83.60;;;;;;5035288;28;20514;-90
2021/04/29 10:36:46;;;;;;;24.37;20.53;;;15.30;81.60;;;;;;5036145;28;20419;-95
2021/04/29 10:39:18;;;;;;;24.27;20.40;;;15.50;81.70;;;;;;5019680;28;20772;-90
2021/04/29 10:41:46;;;;;;;25.27;20.67;;;15.60;81.40;;;;;;5036073;28;20847;-91
2021/04/29 10:44:17;;;;;;;22.63;20.17;;;15.40;80.20;;;;;;5035984;28;20482;-88
2021/04/29 10:46:46;;;;;;;25.40;21.63;;;15.20;82.10;;;;;;5036139;28;20480;-94
2021/04/29 10:49:16;;;;;;;25.00;20.53;;;14.90;82.00;;;;;;5036207;28;20429;-91
2021/04/29 10:51:50;;;;;;;21.13;18.13;;;14.80;83.80;;;;;;5036026;28;20895;-92
2021/04/29 10:58:07;;;;;;;19.47;17.30;;;14.60;85.70;;;;;;5015733;28;20413;-95
2021/04/29 11:00:52;;;;;;;18.33;16.47;;;14.60;84.90;;;;;;5015336;28;20524;-92
2021/04/29 11:03:37;;;;;;;17.60;15.70;;;14.70;83.00;;;;;;5015967;28;20529;-87
2021/04/29 11:06:14;;;;;;;16.87;14.10;;;14.60;82.20;;;;;;4996927;28;20539;-92
2021/04/29 11:08:55;;;;;;;16.27;13.87;;;14.50;82.10;;;;;;4995682;28;20419;-91
2021/04/29 11:11:36;;;;;;;15.73;14.20;;;14.40;82.30;;;;;;4997712;28;20428;-95
2021/04/29 11:14:09;;;;;;;14.53;13.13;;;14.30;81.10;;;;;;5017799;28;20511;-96
2021/04/29 11:16:45;;;;;;;15.30;13.90;;;14.20;81.80;;;;;;5035965;28;20404;-94
2021/04/29 11:19:53;;;;;;;15.47;13.80;;;14.20;82.90;;;;;;5021932;28;20442;-96
2021/04/29 11:22:27;;;;;;;17.83;14.03;;;14.10;83.80;;;;;;4991245;28;20435;-94
2021/04/29 11:24:54;;;;;;;16.27;14.67;;;13.90;86.50;;;;;;5016419;28;20446;-94
2021/04/29 11:27:30;;;;;;;24.07;15.73;;;13.50;92.10;;;;;;5015149;28;20420;-90
2021/04/29 11:30:07;;;;;;;19.27;15.77;;;12.90;99.90;;;;;;4998869;28;20792;-92
2021/04/29 11:32:38;;;;;;;15.07;13.60;;;12.30;99.90;;;;;;5015888;28;20411;-87
2021/04/29 11:35:20;;;;;;;15.70;14.10;;;11.80;99.90;;;;;;5015027;28;20874;-94
2021/04/29 11:37:46;;;;;;;15.00;12.60;;;11.60;99.90;;;;;;5016217;28;20986;-95
2021/04/29 11:40:16;;;;;;;15.40;13.30;;;11.50;99.90;;;;;;5020150;28;20421;-94
2021/04/29 11:42:52;;;;;;;14.87;12.13;;;11.60;99.90;;;;;;5035610;28;20417;-96
2021/04/29 11:45:26;;;;;;;13.93;12.30;;;12.10;99.90;;;;;;5036001;28;20731;-93
2021/04/29 11:47:58;;;;;;;16.13;12.60;;;12.30;99.90;;;;;;5018727;28;20437;-95
2021/04/29 11:50:34;;;;;;;14.67;13.07;;;12.30;99.90;;;;;;5031205;28;20931;-95
2021/04/29 11:53:26;;;;;;;18.00;13.47;;;12.30;99.90;;;;;;5015188;28;20429;-94
2021/04/29 11:56:00;;;;;;;17.97;11.63;;;12.30;99.90;;;;;;5015687;28;20479;-95
2021/04/29 11:58:27;;;;;;;12.63;11.33;;;12.50;99.90;;;;;;5015597;28;20483;-95
2021/04/29 12:00:55;;;;;;;15.90;11.87;;;12.60;99.90;;;;;;5015225;28;20430;-95
2021/04/29 12:03:23;;;;;;;16.70;12.30;;;12.70;99.80;;;;;;5014983;28;20478;-93
2021/04/29 12:05:58;;;;;;;15.00;12.43;;;12.70;96.70;;;;;;4999680;28;20429;-90
2021/04/29 12:08:32;;;;;;;16.90;12.87;;;12.70;97.20;;;;;;5018611;28;20424;-91
2021/04/29 12:11:12;;;;;;;13.90;12.57;;;12.60;96.10;;;;;;5018720;28;20478;-89
2021/04/29 12:13:47;;;;;;;14.90;13.60;;;12.50;96.90;;;;;;5002758;28;20451;-93
2021/04/29 12:16:25;;;;;;;13.77;12.37;;;12.70;97.20;;;;;;5027372;28;20467;-93
2021/04/29 12:18:56;;;;;;;14.30;12.90;;;12.90;96.10;;;;;;5022387;28;20502;-92
2021/04/29 12:21:24;;;;;;;13.80;12.37;;;12.90;96.40;;;;;;5023430;28;20440;-92
2021/04/29 12:23:58;;;;;;;15.90;13.87;;;13.00;93.60;;;;;;5024309;28;20516;-92
2021/04/29 12:26:33;;;;;;;12.50;11.17;;;12.90;94.60;;;;;;5038569;28;20572;-92
2021/04/29 12:29:07;;;;;;;11.60;10.47;;;12.80;95.50;;;;;;5022306;28;20426;-90
2021/04/29 12:31:34;;;;;;;12.00;10.90;;;12.80;95.00;;;;;;5028458;28;20476;-93
2021/04/29 12:34:05;;;;;;;11.97;9.97;;;12.70;95.20;;;;;;5019288;28;20437;-92
2021/04/29 12:36:39;;;;;;;12.27;10.87;;;12.40;96.00;;;;;;5026848;28;20909;-93
2021/04/29 12:39:18;;;;;;;11.27;10.37;;;12.20;96.20;;;;;;5022139;28;20424;-91
2021/04/29 12:41:51;;;;;;;11.23;10.10;;;12.00;95.90;;;;;;5038441;28;20425;-90
2021/04/29 12:44:17;;;;;;;11.40;10.20;;;11.80;95.60;;;;;;5034084;28;21100;-92
2021/04/29 12:46:44;;;;;;;11.87;10.73;;;11.60;96.80;;;;;;5038391;28;20816;-92
2021/04/29 12:49:15;;;;;;;11.20;10.13;;;11.50;98.00;;;;;;5037522;28;20895;-91